sensor_id;sensor_type;location;lat;lon;timestamp;temperature;humidity
11242;DHT22;5678;52.370;9.006;2024-01-15T00:01:22;1.20;1.00
11242;DHT22;5678;52.370;9.006;2024-01-15T00:03:50;1.30;1.00
11242;DHT22;5678;52.370;9.006;2024-01-15T00:06:21;1.10;1.00
11242;DHT22;5678;52.370;9.006;2024-01-15T00:08:49;1.10;1.00
11242;DHT22;5678;52.370;9.006;2024-01-15T00:11:17;1.10;1.00
11242;DHT22;5678;52.370;9.006;2024-01-15T00:13:45;1.00;1.00
11242;DHT22;5678;52.370;9.006;2024-01-15T00:16:13;1.00;1.00
11242;DHT22;5678;52.370;9.006;2024-01-15T00:18:41;1.00;1.00
11242;DHT22;5678;52.370;9.006;2024-01-15T00:21:09;0.90;1.00
11242;DHT22;5678;52.370;9.006;2024-01-15T00:23:41;0.80;1.00
11242;DHT22;5678;52.370;9.006;2024-01-15T00:26:09;0.90;1.00
11242;DHT22;5678;52.370;9.006;2024-01-15T00:28:38;1.20;1.00
11242;DHT22;5678;52.370;9.006;2024-01-15T00:31:06;1.00;1.00
11242;DHT22;5678;52.370;9.006;2024-01-15T00:33:34;0.90;1.00
11242;DHT22;5678;52.370;9.006;2024-01-15T00:36:03;0.90;1.00
11242;DHT22;5678;52.370;9.006;2024-01-15T00:38:31;0.60;1.00
11242;DHT22;5678;52.370;9.006;2024-01-15T00:41:00;1.00;1.00
11242;DHT22;5678;52.370;9.006;2024-01-15T00:43:28;0.80;1.00
11242;DHT22;5678;52.370;9.006;2024-01-15T00:45:56;0.90;1.00
11242;DHT22;5678;52.370;9.006;2024-01-15T00:48:24;0.90;1.00
11242;DHT22;5678;52.370;9.006;2024-01-15T00:50:52;0.90;1.00
11242;DHT22;5678;52.370;9.006;2024-01-15T00:53:21;0.90;1.00
11242;DHT22;5678;52.370;9.006;2024-01-15T00:55:50;0.50;1.00
11242;DHT22;5678;52.370;9.006;2024-01-15T00:58:19;0.80;1.00
11242;DHT22;5678;52.370;9.006;2024-01-15T01:00:47;0.80;1.00
11242;DHT22;5678;52.370;9.006;2024-01-15T01:03:16;0.80;1.00
11242;DHT22;5678;52.370;9.006;2024-01-15T01:05:44;0.70;1.00
11242;DHT22;5678;52.370;9.006;2024-01-15T01:08:12;0.80;1.00
11242;DHT22;5678;52.370;9.006;2024-01-15T01:10:40;0.80;1.00
11242;DHT22;5678;52.370;9.006;2024-01-15T01:13:09;0.70;1.00
11242;DHT22;5678;52.370;9.006;2024-01-15T01:15:39;0.70;1.00
11242;DHT22;5678;52.370;9.006;2024-01-15T01:18:07;0.60;1.00
11242;DHT22;5678;52.370;9.006;2024-01-15T01:20:35;0.80;1.00
11242;DHT22;5678;52.370;9.006;2024-01-15T01:23:04;0.70;1.00
11242;DHT22;5678;52.370;9.006;2024-01-15T01:25:32;0.70;1.00
11242;DHT22;5678;52.370;9.006;2024-01-15T01:28:00;0.70;1.00
11242;DHT22;5678;52.370;9.006;2024-01-15T01:30:28;0.70;1.00
11242;DHT22;5678;52.370;9.006;2024-01-15T01:32:57;0.70;1.00
11242;DHT22;5678;52.370;9.006;2024-01-15T01:35:25;0.80;1.00
11242;DHT22;5678;52.370;9.006;2024-01-15T01:37:53;0.70;1.00
11242;DHT22;5678;52.370;9.006;2024-01-15T01:40:21;0.60;1.00
11242;DHT22;5678;52.370;9.006;2024-01-15T01:42:49;0.70;1.00
11242;DHT22;5678;52.370;9.006;2024-01-15T01:45:17;0.70;1.00
11242;DHT22;5678;52.370;9.006;2024-01-15T01:47:45;0.70;1.00
11242;DHT22;5678;52.370;9.006;2024-01-15T01:50:15;0.80;1.00
11242;DHT22;5678;52.370;9.006;2024-01-15T01:52:44;0.90;1.00
11242;DHT22;5678;52.370;9.006;2024-01-15T01:55:12;0.90;1.00
11242;DHT22;5678;52.370;9.006;2024-01-15T01:57:40;0.80;1.00
11242;DHT22;5678;52.370;9.006;2024-01-15T02:00:10;0.80;1.00
11242;DHT22;5678;52.370;9.006;2024-01-15T02:02:39;0.90;1.00
11242;DHT22;5678;52.370;9.006;2024-01-15T02:05:07;0.80;1.00
11242;DHT22;5678;52.370;9.006;2024-01-15T02:07:37;0.90;1.00
11242;DHT22;5678;52.370;9.006;2024-01-15T02:10:06;0.80;1.00
11242;DHT22;5678;52.370;9.006;2024-01-15T02:12:34;0.70;1.00
11242;DHT22;5678;52.370;9.006;2024-01-15T02:15:03;0.80;1.00
11242;DHT22;5678;52.370;9.006;2024-01-15T02:17:31;0.80;1.00
11242;DHT22;5678;52.370;9.006;2024-01-15T02:19:59;0.80;1.00
11242;DHT22;5678;52.370;9.006;2024-01-15T02:22:27;0.80;1.00
11242;DHT22;5678;52.370;9.006;2024-01-15T02:24:57;0.80;1.00
11242;DHT22;5678;52.370;9.006;2024-01-15T02:27:25;0.80;1.00
11242;DHT22;5678;52.370;9.006;2024-01-15T02:29:53;1.00;1.00
11242;DHT22;5678;52.370;9.006;2024-01-15T02:32:21;0.70;1.00
11242;DHT22;5678;52.370;9.006;2024-01-15T02:34:50;0.80;1.00
11242;DHT22;5678;52.370;9.006;2024-01-15T02:37:18;0.70;1.00
11242;DHT22;5678;52.370;9.006;2024-01-15T02:39:47;0.90;1.00
11242;DHT22;5678;52.370;9.006;2024-01-15T02:42:17;0.80;1.00
11242;DHT22;5678;52.370;9.006;2024-01-15T02:44:45;1.00;1.00
11242;DHT22;5678;52.370;9.006;2024-01-15T02:47:13;0.90;1.00
11242;DHT22;5678;52.370;9.006;2024-01-15T02:49:41;0.90;1.00
11242;DHT22;5678;52.370;9.006;2024-01-15T02:52:09;1.00;1.00
11242;DHT22;5678;52.370;9.006;2024-01-15T02:54:37;1.00;1.00
11242;DHT22;5678;52.370;9.006;2024-01-15T02:57:05;0.90;1.00
11242;DHT22;5678;52.370;9.006;2024-01-15T02:59:34;0.90;1.00
11242;DHT22;5678;52.370;9.006;2024-01-15T03:02:02;0.90;1.00
11242;DHT22;5678;52.370;9.006;2024-01-15T03:04:30;0.90;1.00
11242;DHT22;5678;52.370;9.006;2024-01-15T03:06:59;0.90;1.00
11242;DHT22;5678;52.370;9.006;2024-01-15T03:09:27;0.90;1.00
11242;DHT22;5678;52.370;9.006;2024-01-15T03:11:55;1.00;1.00
11242;DHT22;5678;52.370;9.006;2024-01-15T03:14:23;0.90;1.00
11242;DHT22;5678;52.370;9.006;2024-01-15T03:16:54;1.10;1.00
11242;DHT22;5678;52.370;9.006;2024-01-15T03:19:22;1.20;1.00
11242;DHT22;5678;52.370;9.006;2024-01-15T03:21:50;1.00;1.00
11242;DHT22;5678;52.370;9.006;2024-01-15T03:24:18;1.50;1.00
11242;DHT22;5678;52.370;9.006;2024-01-15T03:26:46;1.10;1.00
11242;DHT22;5678;52.370;9.006;2024-01-15T03:29:14;1.00;1.00
11242;DHT22;5678;52.370;9.006;2024-01-15T03:31:42;1.10;1.00
11242;DHT22;5678;52.370;9.006;2024-01-15T03:34:12;1.30;1.00
11242;DHT22;5678;52.370;9.006;2024-01-15T03:36:40;1.10;1.00
11242;DHT22;5678;52.370;9.006;2024-01-15T03:39:08;1.00;1.00
11242;DHT22;5678;52.370;9.006;2024-01-15T03:41:36;1.10;1.00
11242;DHT22;5678;52.370;9.006;2024-01-15T03:44:04;1.20;1.00
11242;DHT22;5678;52.370;9.006;2024-01-15T03:46:32;1.00;1.00
11242;DHT22;5678;52.370;9.006;2024-01-15T03:49:00;1.10;1.00
11242;DHT22;5678;52.370;9.006;2024-01-15T03:51:30;1.30;1.00
11242;DHT22;5678;52.370;9.006;2024-01-15T03:53:58;1.10;1.00
11242;DHT22;5678;52.370;9.006;2024-01-15T03:56:26;1.10;1.00
11242;DHT22;5678;52.370;9.006;2024-01-15T03:58:53;1.10;1.00
11242;DHT22;5678;52.370;9.006;2024-01-15T04:01:21;1.00;1.00
11242;DHT22;5678;52.370;9.006;2024-01-15T04:03:49;1.30;1.00
11242;DHT22;5678;52.370;9.006;2024-01-15T04:06:17;1.00;1.00
11242;DHT22;5678;52.370;9.006;2024-01-15T04:08:47;1.10;1.00
11242;DHT22;5678;52.370;9.006;2024-01-15T04:11:15;1.20;1.00
11242;DHT22;5678;52.370;9.006;2024-01-15T04:13:43;1.30;1.00
11242;DHT22;5678;52.370;9.006;2024-01-15T04:16:11;1.30;1.00
11242;DHT22;5678;52.370;9.006;2024-01-15T04:18:39;1.20;1.00
11242;DHT22;5678;52.370;9.006;2024-01-15T04:21:07;1.30;1.00
11242;DHT22;5678;52.370;9.006;2024-01-15T04:23:35;1.20;1.00
11242;DHT22;5678;52.370;9.006;2024-01-15T04:26:04;1.20;1.00
11242;DHT22;5678;52.370;9.006;2024-01-15T04:28:32;1.10;1.00
11242;DHT22;5678;52.370;9.006;2024-01-15T04:31:00;1.20;1.00
11242;DHT22;5678;52.370;9.006;2024-01-15T04:33:28;1.20;1.00
11242;DHT22;5678;52.370;9.006;2024-01-15T04:35:56;1.20;1.00
11242;DHT22;5678;52.370;9.006;2024-01-15T04:38:24;1.30;1.00
11242;DHT22;5678;52.370;9.006;2024-01-15T04:40:52;1.30;1.00
11242;DHT22;5678;52.370;9.006;2024-01-15T04:43:25;1.70;1.00
11242;DHT22;5678;52.370;9.006;2024-01-15T04:45:53;1.20;1.00
11242;DHT22;5678;52.370;9.006;2024-01-15T04:48:22;1.30;1.00
11242;DHT22;5678;52.370;9.006;2024-01-15T04:50:50;1.20;1.00
11242;DHT22;5678;52.370;9.006;2024-01-15T04:53:18;1.20;1.00
11242;DHT22;5678;52.370;9.006;2024-01-15T04:55:46;1.20;1.00
11242;DHT22;5678;52.370;9.006;2024-01-15T04:58:14;1.30;1.00
11242;DHT22;5678;52.370;9.006;2024-01-15T05:00:43;1.20;1.00
11242;DHT22;5678;52.370;9.006;2024-01-15T05:03:12;1.20;1.00
11242;DHT22;5678;52.370;9.006;2024-01-15T05:05:40;1.20;1.00
11242;DHT22;5678;52.370;9.006;2024-01-15T05:08:08;1.20;1.00
11242;DHT22;5678;52.370;9.006;2024-01-15T05:10:36;1.10;1.00
11242;DHT22;5678;52.370;9.006;2024-01-15T05:13:04;1.20;1.00
11242;DHT22;5678;52.370;9.006;2024-01-15T05:15:32;1.10;1.00
11242;DHT22;5678;52.370;9.006;2024-01-15T05:18:02;1.00;1.00
11242;DHT22;5678;52.370;9.006;2024-01-15T05:20:30;0.90;1.00
11242;DHT22;5678;52.370;9.006;2024-01-15T05:22:59;0.90;1.00
11242;DHT22;5678;52.370;9.006;2024-01-15T05:25:27;0.70;1.00
11242;DHT22;5678;52.370;9.006;2024-01-15T05:27:55;0.80;1.00
11242;DHT22;5678;52.370;9.006;2024-01-15T05:30:23;0.80;1.00
11242;DHT22;5678;52.370;9.006;2024-01-15T05:32:51;0.80;1.00
11242;DHT22;5678;52.370;9.006;2024-01-15T05:35:21;0.80;1.00
11242;DHT22;5678;52.370;9.006;2024-01-15T05:37:49;0.70;1.00
11242;DHT22;5678;52.370;9.006;2024-01-15T05:40:18;1.30;1.00
11242;DHT22;5678;52.370;9.006;2024-01-15T05:42:46;0.80;1.00
11242;DHT22;5678;52.370;9.006;2024-01-15T05:45:14;0.80;1.00
11242;DHT22;5678;52.370;9.006;2024-01-15T05:47:43;0.90;1.00
11242;DHT22;5678;52.370;9.006;2024-01-15T05:50:11;0.90;1.00
11242;DHT22;5678;52.370;9.006;2024-01-15T05:52:41;0.90;1.00
11242;DHT22;5678;52.370;9.006;2024-01-15T05:55:09;0.90;1.00
11242;DHT22;5678;52.370;9.006;2024-01-15T05:57:37;0.90;1.00
11242;DHT22;5678;52.370;9.006;2024-01-15T06:00:07;0.90;1.00
11242;DHT22;5678;52.370;9.006;2024-01-15T06:02:37;0.90;1.00
11242;DHT22;5678;52.370;9.006;2024-01-15T06:05:06;1.00;1.00
11242;DHT22;5678;52.370;9.006;2024-01-15T06:07:35;1.00;1.00
11242;DHT22;5678;52.370;9.006;2024-01-15T06:10:05;1.00;1.00
11242;DHT22;5678;52.370;9.006;2024-01-15T06:12:34;0.90;1.00
11242;DHT22;5678;52.370;9.006;2024-01-15T06:15:03;1.00;1.00
11242;DHT22;5678;52.370;9.006;2024-01-15T06:17:31;1.00;1.00
11242;DHT22;5678;52.370;9.006;2024-01-15T06:20:03;1.00;1.00
11242;DHT22;5678;52.370;9.006;2024-01-15T06:22:31;1.00;1.00
11242;DHT22;5678;52.370;9.006;2024-01-15T06:25:00;1.10;1.00
11242;DHT22;5678;52.370;9.006;2024-01-15T06:27:31;1.10;1.00
11242;DHT22;5678;52.370;9.006;2024-01-15T06:30:01;1.10;1.00
11242;DHT22;5678;52.370;9.006;2024-01-15T06:32:32;1.10;1.00
11242;DHT22;5678;52.370;9.006;2024-01-15T06:35:02;1.00;1.00
11242;DHT22;5678;52.370;9.006;2024-01-15T06:37:30;1.10;1.00
11242;DHT22;5678;52.370;9.006;2024-01-15T06:40:00;1.00;1.00
11242;DHT22;5678;52.370;9.006;2024-01-15T06:42:32;1.00;1.00
11242;DHT22;5678;52.370;9.006;2024-01-15T06:45:05;1.00;1.00
11242;DHT22;5678;52.370;9.006;2024-01-15T06:47:34;1.20;1.00
11242;DHT22;5678;52.370;9.006;2024-01-15T06:50:04;1.00;1.00
11242;DHT22;5678;52.370;9.006;2024-01-15T06:52:34;1.00;1.00
11242;DHT22;5678;52.370;9.006;2024-01-15T06:55:05;1.00;1.00
11242;DHT22;5678;52.370;9.006;2024-01-15T06:57:35;1.00;1.00
11242;DHT22;5678;52.370;9.006;2024-01-15T07:00:04;1.00;1.00
11242;DHT22;5678;52.370;9.006;2024-01-15T07:02:35;1.30;1.00
11242;DHT22;5678;52.370;9.006;2024-01-15T07:05:03;1.00;1.00
11242;DHT22;5678;52.370;9.006;2024-01-15T07:07:32;0.60;1.00
11242;DHT22;5678;52.370;9.006;2024-01-15T07:10:01;1.00;1.00
11242;DHT22;5678;52.370;9.006;2024-01-15T07:12:30;1.00;1.00
11242;DHT22;5678;52.370;9.006;2024-01-15T07:15:00;1.10;1.00
11242;DHT22;5678;52.370;9.006;2024-01-15T07:17:28;1.10;1.00
11242;DHT22;5678;52.370;9.006;2024-01-15T07:19:57;1.20;1.00
11242;DHT22;5678;52.370;9.006;2024-01-15T07:22:26;1.00;1.00
11242;DHT22;5678;52.370;9.006;2024-01-15T07:24:54;1.10;1.00
11242;DHT22;5678;52.370;9.006;2024-01-15T07:27:22;1.40;1.00
11242;DHT22;5678;52.370;9.006;2024-01-15T07:29:50;1.20;1.00
11242;DHT22;5678;52.370;9.006;2024-01-15T07:32:20;1.20;1.00
11242;DHT22;5678;52.370;9.006;2024-01-15T07:34:48;1.10;1.00
11242;DHT22;5678;52.370;9.006;2024-01-15T07:37:16;1.20;1.00
11242;DHT22;5678;52.370;9.006;2024-01-15T07:39:44;1.10;1.00
11242;DHT22;5678;52.370;9.006;2024-01-15T07:42:13;1.20;1.00
11242;DHT22;5678;52.370;9.006;2024-01-15T07:44:41;1.10;1.00
11242;DHT22;5678;52.370;9.006;2024-01-15T07:47:09;1.10;1.00
11242;DHT22;5678;52.370;9.006;2024-01-15T07:49:38;1.20;1.00
11242;DHT22;5678;52.370;9.006;2024-01-15T07:52:07;1.20;1.00
11242;DHT22;5678;52.370;9.006;2024-01-15T07:54:35;2.10;1.00
11242;DHT22;5678;52.370;9.006;2024-01-15T07:57:03;1.10;1.00
11242;DHT22;5678;52.370;9.006;2024-01-15T07:59:31;1.10;1.00
11242;DHT22;5678;52.370;9.006;2024-01-15T08:01:59;1.10;1.00
11242;DHT22;5678;52.370;9.006;2024-01-15T08:04:28;1.30;1.00
11242;DHT22;5678;52.370;9.006;2024-01-15T08:06:58;1.00;1.00
11242;DHT22;5678;52.370;9.006;2024-01-15T08:09:26;1.00;1.00
11242;DHT22;5678;52.370;9.006;2024-01-15T08:11:54;1.60;1.00
11242;DHT22;5678;52.370;9.006;2024-01-15T08:14:22;1.00;1.00
11242;DHT22;5678;52.370;9.006;2024-01-15T08:16:50;1.00;1.00
11242;DHT22;5678;52.370;9.006;2024-01-15T08:19:18;1.00;1.00
11242;DHT22;5678;52.370;9.006;2024-01-15T08:21:47;1.10;1.00
11242;DHT22;5678;52.370;9.006;2024-01-15T08:24:17;1.30;1.00
11242;DHT22;5678;52.370;9.006;2024-01-15T08:26:45;1.40;1.00
11242;DHT22;5678;52.370;9.006;2024-01-15T08:29:13;1.00;1.00
11242;DHT22;5678;52.370;9.006;2024-01-15T08:31:41;1.70;1.00
11242;DHT22;5678;52.370;9.006;2024-01-15T08:34:09;1.10;1.00
11242;DHT22;5678;52.370;9.006;2024-01-15T08:36:38;1.20;1.00
11242;DHT22;5678;52.370;9.006;2024-01-15T08:39:07;1.50;1.00
11242;DHT22;5678;52.370;9.006;2024-01-15T08:41:37;1.20;1.00
11242;DHT22;5678;52.370;9.006;2024-01-15T08:44:05;1.40;1.00
11242;DHT22;5678;52.370;9.006;2024-01-15T08:46:33;1.20;1.00
11242;DHT22;5678;52.370;9.006;2024-01-15T08:49:01;1.20;1.00
11242;DHT22;5678;52.370;9.006;2024-01-15T08:51:30;1.20;1.00
11242;DHT22;5678;52.370;9.006;2024-01-15T08:53:58;1.30;1.00
11242;DHT22;5678;52.370;9.006;2024-01-15T08:56:29;1.30;1.00
11242;DHT22;5678;52.370;9.006;2024-01-15T08:58:58;1.40;1.00
11242;DHT22;5678;52.370;9.006;2024-01-15T09:01:27;1.30;1.00
11242;DHT22;5678;52.370;9.006;2024-01-15T09:03:55;1.40;1.00
11242;DHT22;5678;52.370;9.006;2024-01-15T09:06:24;1.10;99.90
11242;DHT22;5678;52.370;9.006;2024-01-15T09:08:52;1.40;99.90
11242;DHT22;5678;52.370;9.006;2024-01-15T09:11:20;1.40;99.90
11242;DHT22;5678;52.370;9.006;2024-01-15T09:13:48;1.20;99.90
11242;DHT22;5678;52.370;9.006;2024-01-15T09:16:18;1.40;1.00
11242;DHT22;5678;52.370;9.006;2024-01-15T09:18:46;1.30;1.00
11242;DHT22;5678;52.370;9.006;2024-01-15T09:21:15;1.20;1.00
11242;DHT22;5678;52.370;9.006;2024-01-15T09:23:43;1.00;1.00
11242;DHT22;5678;52.370;9.006;2024-01-15T09:26:11;0.90;1.00
11242;DHT22;5678;52.370;9.006;2024-01-15T09:28:39;0.90;1.00
11242;DHT22;5678;52.370;9.006;2024-01-15T09:31:08;0.80;1.00
11242;DHT22;5678;52.370;9.006;2024-01-15T09:33:37;0.70;1.00
11242;DHT22;5678;52.370;9.006;2024-01-15T09:36:06;1.00;1.00
11242;DHT22;5678;52.370;9.006;2024-01-15T09:38:34;0.70;1.00
11242;DHT22;5678;52.370;9.006;2024-01-15T09:41:03;0.90;1.00
11242;DHT22;5678;52.370;9.006;2024-01-15T09:43:33;2.30;1.00
11242;DHT22;5678;52.370;9.006;2024-01-15T09:46:01;1.00;1.00
11242;DHT22;5678;52.370;9.006;2024-01-15T09:48:30;1.10;1.00
11242;DHT22;5678;52.370;9.006;2024-01-15T09:51:03;1.20;1.00
11242;DHT22;5678;52.370;9.006;2024-01-15T09:53:32;1.30;1.00
11242;DHT22;5678;52.370;9.006;2024-01-15T09:56:00;1.40;1.00
11242;DHT22;5678;52.370;9.006;2024-01-15T09:58:28;1.50;1.00
11242;DHT22;5678;52.370;9.006;2024-01-15T10:00:57;1.50;1.00
11242;DHT22;5678;52.370;9.006;2024-01-15T10:03:25;1.40;1.00
11242;DHT22;5678;52.370;9.006;2024-01-15T10:05:54;1.50;1.00
11242;DHT22;5678;52.370;9.006;2024-01-15T10:08:24;1.60;1.00
11242;DHT22;5678;52.370;9.006;2024-01-15T10:10:53;1.60;1.00
11242;DHT22;5678;52.370;9.006;2024-01-15T10:13:21;2.50;1.00
11242;DHT22;5678;52.370;9.006;2024-01-15T10:15:50;1.80;1.00
11242;DHT22;5678;52.370;9.006;2024-01-15T10:18:18;1.90;99.90
11242;DHT22;5678;52.370;9.006;2024-01-15T10:20:47;1.60;1.00
11242;DHT22;5678;52.370;9.006;2024-01-15T10:23:16;0.90;79.00
11242;DHT22;5678;52.370;9.006;2024-01-15T10:25:45;1.90;1.00
11242;DHT22;5678;52.370;9.006;2024-01-15T10:28:14;1.90;1.00
11242;DHT22;5678;52.370;9.006;2024-01-15T10:30:42;1.90;1.00
11242;DHT22;5678;52.370;9.006;2024-01-15T10:33:10;2.00;99.90
11242;DHT22;5678;52.370;9.006;2024-01-15T10:35:39;2.10;1.00
11242;DHT22;5678;52.370;9.006;2024-01-15T10:38:08;2.10;1.00
11242;DHT22;5678;52.370;9.006;2024-01-15T10:40:37;2.10;99.90
11242;DHT22;5678;52.370;9.006;2024-01-15T10:43:06;2.20;1.00
11242;DHT22;5678;52.370;9.006;2024-01-15T10:45:35;2.10;90.20
11242;DHT22;5678;52.370;9.006;2024-01-15T10:48:04;2.20;99.90
11242;DHT22;5678;52.370;9.006;2024-01-15T10:50:33;2.20;99.90
11242;DHT22;5678;52.370;9.006;2024-01-15T10:53:02;2.30;99.90
11242;DHT22;5678;52.370;9.006;2024-01-15T10:55:31;2.20;99.90
11242;DHT22;5678;52.370;9.006;2024-01-15T10:58:00;2.20;99.90
11242;DHT22;5678;52.370;9.006;2024-01-15T11:00:30;2.30;1.00
11242;DHT22;5678;52.370;9.006;2024-01-15T11:03:01;0.60;1.00
11242;DHT22;5678;52.370;9.006;2024-01-15T11:05:29;2.10;99.90
11242;DHT22;5678;52.370;9.006;2024-01-15T11:08:01;2.10;1.00
11242;DHT22;5678;52.370;9.006;2024-01-15T11:10:38;2.20;99.90
11242;DHT22;5678;52.370;9.006;2024-01-15T11:13:09;2.20;99.90
11242;DHT22;5678;52.370;9.006;2024-01-15T11:16:01;2.20;1.00
11242;DHT22;5678;52.370;9.006;2024-01-15T11:18:30;2.20;99.90
11242;DHT22;5678;52.370;9.006;2024-01-15T11:21:25;2.20;1.00
11242;DHT22;5678;52.370;9.006;2024-01-15T11:23:56;2.40;99.90
11242;DHT22;5678;52.370;9.006;2024-01-15T11:26:33;2.50;18.00
11242;DHT22;5678;52.370;9.006;2024-01-15T11:29:03;2.60;99.90
11242;DHT22;5678;52.370;9.006;2024-01-15T11:32:01;2.60;99.90
11242;DHT22;5678;52.370;9.006;2024-01-15T11:34:51;2.90;99.90
11242;DHT22;5678;52.370;9.006;2024-01-15T11:37:21;2.70;99.90
11242;DHT22;5678;52.370;9.006;2024-01-15T11:39:52;2.70;99.90
11242;DHT22;5678;52.370;9.006;2024-01-15T11:42:21;2.70;99.90
11242;DHT22;5678;52.370;9.006;2024-01-15T11:44:50;2.70;99.90
11242;DHT22;5678;52.370;9.006;2024-01-15T11:50:24;2.80;99.90
11242;DHT22;5678;52.370;9.006;2024-01-15T11:53:00;2.70;99.90
11242;DHT22;5678;52.370;9.006;2024-01-15T11:55:34;2.60;99.90
11242;DHT22;5678;52.370;9.006;2024-01-15T11:58:08;2.60;99.90
11242;DHT22;5678;52.370;9.006;2024-01-15T12:00:40;2.70;99.90
11242;DHT22;5678;52.370;9.006;2024-01-15T12:03:10;2.60;99.90
11242;DHT22;5678;52.370;9.006;2024-01-15T12:05:39;2.60;99.90
11242;DHT22;5678;52.370;9.006;2024-01-15T12:08:09;2.50;99.90
11242;DHT22;5678;52.370;9.006;2024-01-15T12:10:39;2.50;99.90
11242;DHT22;5678;52.370;9.006;2024-01-15T12:13:11;2.50;99.90
11242;DHT22;5678;52.370;9.006;2024-01-15T12:15:41;2.50;99.90
11242;DHT22;5678;52.370;9.006;2024-01-15T12:18:13;2.50;99.90
11242;DHT22;5678;52.370;9.006;2024-01-15T12:20:43;2.40;99.90
11242;DHT22;5678;52.370;9.006;2024-01-15T12:23:14;2.40;99.90
11242;DHT22;5678;52.370;9.006;2024-01-15T12:25:42;2.40;99.90
11242;DHT22;5678;52.370;9.006;2024-01-15T12:28:12;2.50;99.90
11242;DHT22;5678;52.370;9.006;2024-01-15T12:30:40;2.60;99.90
11242;DHT22;5678;52.370;9.006;2024-01-15T12:33:09;2.50;99.90
11242;DHT22;5678;52.370;9.006;2024-01-15T12:35:39;2.70;99.90
11242;DHT22;5678;52.370;9.006;2024-01-15T12:38:07;2.60;99.90
11242;DHT22;5678;52.370;9.006;2024-01-15T12:40:36;2.70;99.90
11242;DHT22;5678;52.370;9.006;2024-01-15T12:43:06;2.50;99.90
11242;DHT22;5678;52.370;9.006;2024-01-15T12:45:40;2.60;99.90
11242;DHT22;5678;52.370;9.006;2024-01-15T12:48:10;2.60;99.90
11242;DHT22;5678;52.370;9.006;2024-01-15T12:50:43;2.40;99.90
11242;DHT22;5678;52.370;9.006;2024-01-15T12:53:12;2.40;99.90
11242;DHT22;5678;52.370;9.006;2024-01-15T12:56:13;2.20;99.90
11242;DHT22;5678;52.370;9.006;2024-01-15T12:59:31;2.30;99.90
11242;DHT22;5678;52.370;9.006;2024-01-15T13:02:18;2.60;99.90
11242;DHT22;5678;52.370;9.006;2024-01-15T13:05:04;2.30;99.90
11242;DHT22;5678;52.370;9.006;2024-01-15T13:07:43;2.30;99.90
11242;DHT22;5678;52.370;9.006;2024-01-15T13:10:21;2.20;99.90
11242;DHT22;5678;52.370;9.006;2024-01-15T13:13:09;2.20;99.90
11242;DHT22;5678;52.370;9.006;2024-01-15T13:15:45;2.20;99.90
11242;DHT22;5678;52.370;9.006;2024-01-15T13:18:23;2.20;99.90
11242;DHT22;5678;52.370;9.006;2024-01-15T13:21:15;2.20;99.90
11242;DHT22;5678;52.370;9.006;2024-01-15T13:24:26;2.20;99.90
11242;DHT22;5678;52.370;9.006;2024-01-15T13:27:15;2.10;99.90
11242;DHT22;5678;52.370;9.006;2024-01-15T13:33:26;2.40;99.90
11242;DHT22;5678;52.370;9.006;2024-01-15T13:36:35;2.30;99.90
11242;DHT22;5678;52.370;9.006;2024-01-15T13:39:13;2.20;99.90
11242;DHT22;5678;52.370;9.006;2024-01-15T13:41:48;2.30;99.90
11242;DHT22;5678;52.370;9.006;2024-01-15T13:44:19;2.20;99.90
11242;DHT22;5678;52.370;9.006;2024-01-15T13:46:56;2.20;99.90
11242;DHT22;5678;52.370;9.006;2024-01-15T13:49:27;2.20;99.90
11242;DHT22;5678;52.370;9.006;2024-01-15T13:51:57;2.20;99.90
11242;DHT22;5678;52.370;9.006;2024-01-15T13:54:27;2.10;99.90
11242;DHT22;5678;52.370;9.006;2024-01-15T13:57:16;2.10;99.90
11242;DHT22;5678;52.370;9.006;2024-01-15T13:59:45;1.90;99.90
11242;DHT22;5678;52.370;9.006;2024-01-15T14:02:14;1.90;99.90
11242;DHT22;5678;52.370;9.006;2024-01-15T14:04:47;1.80;99.90
11242;DHT22;5678;52.370;9.006;2024-01-15T14:07:16;1.80;99.90
11242;DHT22;5678;52.370;9.006;2024-01-15T14:09:45;1.80;99.90
11242;DHT22;5678;52.370;9.006;2024-01-15T14:12:15;1.70;99.90
11242;DHT22;5678;52.370;9.006;2024-01-15T14:14:43;1.60;1.00
11242;DHT22;5678;52.370;9.006;2024-01-15T14:17:12;1.80;1.00
11242;DHT22;5678;52.370;9.006;2024-01-15T14:19:40;1.50;1.00
11242;DHT22;5678;52.370;9.006;2024-01-15T14:22:08;0.40;1.00
11242;DHT22;5678;52.370;9.006;2024-01-15T14:24:36;1.40;1.00
11242;DHT22;5678;52.370;9.006;2024-01-15T14:27:04;1.40;1.00
11242;DHT22;5678;52.370;9.006;2024-01-15T14:29:35;1.40;1.00
11242;DHT22;5678;52.370;9.006;2024-01-15T14:32:04;1.40;1.00
11242;DHT22;5678;52.370;9.006;2024-01-15T14:34:43;1.50;1.00
11242;DHT22;5678;52.370;9.006;2024-01-15T14:37:23;1.60;1.00
11242;DHT22;5678;52.370;9.006;2024-01-15T14:40:10;1.50;1.00
11242;DHT22;5678;52.370;9.006;2024-01-15T14:42:49;1.50;1.00
11242;DHT22;5678;52.370;9.006;2024-01-15T14:45:27;1.50;1.00
11242;DHT22;5678;52.370;9.006;2024-01-15T14:48:03;1.40;1.00
11242;DHT22;5678;52.370;9.006;2024-01-15T14:50:37;1.40;1.00
11242;DHT22;5678;52.370;9.006;2024-01-15T14:58:22;1.40;1.00
11242;DHT22;5678;52.370;9.006;2024-01-15T15:00:58;1.30;1.00
11242;DHT22;5678;52.370;9.006;2024-01-15T15:03:30;1.20;1.00
11242;DHT22;5678;52.370;9.006;2024-01-15T15:06:03;1.30;1.00
11242;DHT22;5678;52.370;9.006;2024-01-15T15:08:35;1.30;1.00
11242;DHT22;5678;52.370;9.006;2024-01-15T15:11:05;1.20;1.00
11242;DHT22;5678;52.370;9.006;2024-01-15T15:13:36;1.10;1.00
11242;DHT22;5678;52.370;9.006;2024-01-15T15:16:15;1.10;1.00
11242;DHT22;5678;52.370;9.006;2024-01-15T15:18:48;1.10;1.00
11242;DHT22;5678;52.370;9.006;2024-01-15T15:21:20;1.10;1.00
11242;DHT22;5678;52.370;9.006;2024-01-15T15:23:54;1.00;1.00
11242;DHT22;5678;52.370;9.006;2024-01-15T15:28:57;1.00;1.00
11242;DHT22;5678;52.370;9.006;2024-01-15T15:31:32;1.00;1.00
11242;DHT22;5678;52.370;9.006;2024-01-15T15:34:05;0.90;1.00
11242;DHT22;5678;52.370;9.006;2024-01-15T15:36:37;1.00;1.00
11242;DHT22;5678;52.370;9.006;2024-01-15T15:39:13;1.00;1.00
11242;DHT22;5678;52.370;9.006;2024-01-15T15:41:45;0.00;1.00
11242;DHT22;5678;52.370;9.006;2024-01-15T15:44:15;0.80;1.00
11242;DHT22;5678;52.370;9.006;2024-01-15T15:46:47;0.90;1.00
11242;DHT22;5678;52.370;9.006;2024-01-15T15:49:17;2.20;1.00
11242;DHT22;5678;52.370;9.006;2024-01-15T15:51:50;0.90;1.00
11242;DHT22;5678;52.370;9.006;2024-01-15T15:54:19;0.90;1.00
11242;DHT22;5678;52.370;9.006;2024-01-15T15:56:49;0.90;1.00
11242;DHT22;5678;52.370;9.006;2024-01-15T15:59:21;0.90;1.00
11242;DHT22;5678;52.370;9.006;2024-01-15T16:01:53;1.00;1.00
11242;DHT22;5678;52.370;9.006;2024-01-15T16:04:24;0.90;1.00
11242;DHT22;5678;52.370;9.006;2024-01-15T16:06:54;0.90;1.00
11242;DHT22;5678;52.370;9.006;2024-01-15T16:09:23;1.00;1.00
11242;DHT22;5678;52.370;9.006;2024-01-15T16:11:53;0.90;1.00
11242;DHT22;5678;52.370;9.006;2024-01-15T16:14:21;1.20;1.00
11242;DHT22;5678;52.370;9.006;2024-01-15T16:16:51;1.00;1.00
11242;DHT22;5678;52.370;9.006;2024-01-15T16:19:45;0.90;1.00
11242;DHT22;5678;52.370;9.006;2024-01-15T16:22:35;1.00;1.00
11242;DHT22;5678;52.370;9.006;2024-01-15T16:25:25;1.70;1.00
11242;DHT22;5678;52.370;9.006;2024-01-15T16:27:56;1.00;1.00
11242;DHT22;5678;52.370;9.006;2024-01-15T16:30:27;0.70;1.00
11242;DHT22;5678;52.370;9.006;2024-01-15T16:33:09;1.10;1.00
11242;DHT22;5678;52.370;9.006;2024-01-15T16:35:41;1.00;1.00
11242;DHT22;5678;52.370;9.006;2024-01-15T16:38:14;1.00;1.00
11242;DHT22;5678;52.370;9.006;2024-01-15T16:40:44;1.00;1.00
11242;DHT22;5678;52.370;9.006;2024-01-15T16:43:17;1.00;1.00
11242;DHT22;5678;52.370;9.006;2024-01-15T16:45:48;1.00;1.00
11242;DHT22;5678;52.370;9.006;2024-01-15T16:48:18;0.90;1.00
11242;DHT22;5678;52.370;9.006;2024-01-15T16:50:52;1.00;1.00